Hundvaag 1 weather for Oct 2009
Month no. 268
Obs.
Da.
Temp. Dew Point Precip. Wind
Speed
Wind gusts Cloud cover Press. Humidity Wind dir. Sunny OPT
01.10.2009 6,1 3,6 5,5 7,4 9,7 7 1006,3 84,0 292,5 1 70,0 %
02.10.2009 5,5 2,8 1,1 3,2 6,4 9 1012,1 83,0 292,5 1 82,5 %
03.10.2009 8,2 5,1 4,1 18,5 19,5 0 991,8 81,0 157,5   47,5 %
04.10.2009 8,5 6,3 26,0 22,4 22,4 1 985,0 86,0 270,0   30,0 %
05.10.2009 5,9 3,2 7,2 0,0 0,0 4 1010,4 83,0 157,5 1 65,0 %
06.10.2009 8,8 4,8 2,1 16,7 16,7 1 1009,7 76,0 135,0   55,0 %
07.10.2009 9,3 6,2 17,8 19,3 24,1 3 999,2 81,0 202,5 1 45,0 %
08.10.2009 7,3 4,9 5,0 0,0 0,6 2 1006,7 85,0 180,0   62,5 %
09.10.2009 4,6 1,4 6,0 4,0 4,0 10 1025,3 80,0 270,0 1 75,0 %
10.10.2009 5,6 0,5 0,0 0,0 1,6 4 1018,8 70,0 157,5 1 70,0 %
11.10.2009 8,5 3,7 0,0 11,1 11,1 1 1013,1 72,0 157,5   57,5 %
12.10.2009 7,3 3,7 0,0 22,2 22,2 8 1020,5 78,0 270,0 1 65,0 %
13.10.2009 4,2 1,1 0,0 3,7 3,7 10 1030,0 80,0 67,5 1 80,0 %
14.10.2009 5,0 -2,1 0,0 5,6 5,6 10 1037,1 60,0 112,5 1 82,5 %
15.10.2009 5,9 2,2 0,0 3,7 3,7 0 1037,8 77,0 67,5   57,5 %
16.10.2009 7,9 3,6 5,6 29,6 29,6 8 1025,6 74,0 292,5 1 60,0 %
17.10.2009 6,8 3,1 0,0 5,6 5,6 10 1030,7 77,0 45,0 1 82,5 %
18.10.2009 4,9 2,4 0,0 0,0 0,0 1 1025,3 84,0 135,0   60,0 %
19.10.2009 7,9 5,2 1,5 9,3 9,3 3 1013,4 83,0 292,5 1 65,0 %
20.10.2009 9,6 5,9 0,0 5,6 5,6 2 1014,8 78,0 90,0   65,0 %
21.10.2009 9,6 2,2 0,0 22,2 22,2 3 1016,8 60,0 90,0 1 55,0 %
22.10.2009 8,7 1,1 0,0 14,8 14,8 10 1016,1 59,0 90,0 1 77,5 %
23.10.2009 9,6 3,6 0,0 3,7 3,7 1 1018,2 66,0 90,0   62,5 %
24.10.2009 8,9 2,4 0,0 7,4 7,6 1 1021,2 64,0 135,0   60,0 %
25.10.2009 10,1 3,2 0,5 18,7 18,7 3 1004,6 62,0 135,0 1 60,0 %
26.10.2009 9,9 6,8 1,1 0,0 0,0 3 1007,7 81,0 315,0 1 70,0 %
27.10.2009 6,3 3,6 0,0 7,4 7,4 8 1021,6 83,0 292,5 1 75,0 %
28.10.2009 8,4 4,8 1,7 5,6 5,6 0 1020,5 78,0 157,5   60,0 %
29.10.2009 8,5 2,9 11,3 6,4 6,4 1 1027,7 68,0 112,5 1 55,0 %
30.10.2009 7,4 1,7 0,0 18,5 18,5 2 1034,1 67,0 90,0   52,5 %
31.10.2009 8,3 3,2 0,0 11,1 11,1 1 1028,7 70,0 90,0   57,5 %
Avrg/Sum 7,5 3,3 96,5 9,8 10,2 4,1 1017,1 75,2 169,1 18 63,3 %